sensor_id;sensor_type;location;lat;lon;timestamp;pressure;altitude;pressure_sealevel;temperature;humidity
63663;BME280;49815;51.618;0.336;2022-07-10T00:02:05;102197.46;;;18.51;42.10
63663;BME280;49815;51.618;0.336;2022-07-10T00:04:31;102195.32;;;18.34;42.35
63663;BME280;49815;51.618;0.336;2022-07-10T00:06:55;102194.12;;;18.64;42.63
63663;BME280;49815;51.618;0.336;2022-07-10T00:09:21;102196.99;;;17.97;42.47
63663;BME280;49815;51.618;0.336;2022-07-10T00:11:46;102196.73;;;17.99;42.80
63663;BME280;49815;51.618;0.336;2022-07-10T00:14:12;102194.74;;;17.76;42.74
63663;BME280;49815;51.618;0.336;2022-07-10T00:16:37;102191.54;;;17.94;42.91
63663;BME280;49815;51.618;0.336;2022-07-10T00:19:02;102191.33;;;17.89;43.30
63663;BME280;49815;51.618;0.336;2022-07-10T00:21:27;102191.49;;;18.13;42.71
63663;BME280;49815;51.618;0.336;2022-07-10T00:23:53;102193.79;;;18.20;43.14
63663;BME280;49815;51.618;0.336;2022-07-10T00:26:18;102196.89;;;17.40;44.03
63663;BME280;49815;51.618;0.336;2022-07-10T00:28:43;102195.76;;;17.75;42.90
63663;BME280;49815;51.618;0.336;2022-07-10T00:31:08;102196.40;;;17.50;42.70
63663;BME280;49815;51.618;0.336;2022-07-10T00:33:34;102198.01;;;17.44;43.28
63663;BME280;49815;51.618;0.336;2022-07-10T00:35:59;102196.84;;;17.67;43.68
63663;BME280;49815;51.618;0.336;2022-07-10T00:38:24;102200.30;;;17.70;43.42
63663;BME280;49815;51.618;0.336;2022-07-10T00:40:50;102196.06;;;17.92;42.98
63663;BME280;49815;51.618;0.336;2022-07-10T00:43:15;102196.29;;;17.77;43.08
63663;BME280;49815;51.618;0.336;2022-07-10T00:45:41;102195.76;;;17.61;43.29
63663;BME280;49815;51.618;0.336;2022-07-10T00:48:07;102191.26;;;17.85;42.85
63663;BME280;49815;51.618;0.336;2022-07-10T00:50:33;102187.22;;;17.92;43.78
63663;BME280;49815;51.618;0.336;2022-07-10T00:52:57;102183.86;;;18.06;43.11
63663;BME280;49815;51.618;0.336;2022-07-10T00:55:22;102182.48;;;17.46;43.72
63663;BME280;49815;51.618;0.336;2022-07-10T00:57:48;102183.84;;;17.26;43.63
63663;BME280;49815;51.618;0.336;2022-07-10T01:00:12;102185.51;;;17.50;43.33
63663;BME280;49815;51.618;0.336;2022-07-10T01:02:42;102181.35;;;17.33;44.06
63663;BME280;49815;51.618;0.336;2022-07-10T01:05:04;102183.48;;;17.09;43.73
63663;BME280;49815;51.618;0.336;2022-07-10T01:07:28;102183.37;;;17.40;43.76
63663;BME280;49815;51.618;0.336;2022-07-10T01:09:54;102182.69;;;17.16;44.35
63663;BME280;49815;51.618;0.336;2022-07-10T01:12:20;102180.20;;;17.18;44.07
63663;BME280;49815;51.618;0.336;2022-07-10T01:14:46;102176.26;;;17.57;43.69
63663;BME280;49815;51.618;0.336;2022-07-10T01:17:11;102173.97;;;17.01;44.03
63663;BME280;49815;51.618;0.336;2022-07-10T01:19:35;102175.03;;;17.32;43.73
63663;BME280;49815;51.618;0.336;2022-07-10T01:22:01;102167.77;;;17.50;43.42
63663;BME280;49815;51.618;0.336;2022-07-10T01:24:26;102170.69;;;17.16;43.90
63663;BME280;49815;51.618;0.336;2022-07-10T01:26:52;102167.23;;;17.12;43.96
63663;BME280;49815;51.618;0.336;2022-07-10T01:29:17;102164.35;;;17.19;43.79
63663;BME280;49815;51.618;0.336;2022-07-10T01:31:42;102162.48;;;16.94;44.00
63663;BME280;49815;51.618;0.336;2022-07-10T01:34:08;102160.10;;;17.20;43.72
63663;BME280;49815;51.618;0.336;2022-07-10T01:36:33;102157.68;;;17.24;43.07
63663;BME280;49815;51.618;0.336;2022-07-10T01:38:58;102153.40;;;17.28;43.16
63663;BME280;49815;51.618;0.336;2022-07-10T01:41:23;102154.25;;;16.96;43.65
63663;BME280;49815;51.618;0.336;2022-07-10T01:43:49;102155.75;;;16.83;43.54
63663;BME280;49815;51.618;0.336;2022-07-10T01:46:15;102154.90;;;16.85;43.44
63663;BME280;49815;51.618;0.336;2022-07-10T01:48:39;102154.10;;;17.07;42.83
63663;BME280;49815;51.618;0.336;2022-07-10T01:51:05;102157.57;;;17.06;43.30
63663;BME280;49815;51.618;0.336;2022-07-10T01:53:30;102156.95;;;17.46;42.76
63663;BME280;49815;51.618;0.336;2022-07-10T01:55:56;102153.02;;;17.14;42.86
63663;BME280;49815;51.618;0.336;2022-07-10T01:58:21;102151.30;;;17.20;42.99
63663;BME280;49815;51.618;0.336;2022-07-10T02:00:47;102152.52;;;17.02;42.86
63663;BME280;49815;51.618;0.336;2022-07-10T02:03:11;102151.19;;;17.03;43.47
63663;BME280;49815;51.618;0.336;2022-07-10T02:05:37;102149.14;;;16.87;43.10
63663;BME280;49815;51.618;0.336;2022-07-10T02:08:03;102143.89;;;17.20;43.01
63663;BME280;49815;51.618;0.336;2022-07-10T02:10:27;102141.76;;;17.49;42.38
63663;BME280;49815;51.618;0.336;2022-07-10T02:12:52;102144.20;;;16.63;42.94
63663;BME280;49815;51.618;0.336;2022-07-10T02:15:18;102140.76;;;16.54;42.95
63663;BME280;49815;51.618;0.336;2022-07-10T02:17:43;102141.02;;;16.86;43.32
63663;BME280;49815;51.618;0.336;2022-07-10T02:20:09;102144.70;;;16.73;43.18
63663;BME280;49815;51.618;0.336;2022-07-10T02:22:34;102144.47;;;16.83;42.92
63663;BME280;49815;51.618;0.336;2022-07-10T02:24:59;102141.69;;;16.46;43.10
63663;BME280;49815;51.618;0.336;2022-07-10T02:27:25;102143.51;;;16.88;42.66
63663;BME280;49815;51.618;0.336;2022-07-10T02:29:50;102140.32;;;16.90;42.84
63663;BME280;49815;51.618;0.336;2022-07-10T02:32:16;102140.86;;;17.26;42.90
63663;BME280;49815;51.618;0.336;2022-07-10T02:34:41;102141.02;;;16.60;42.94
63663;BME280;49815;51.618;0.336;2022-07-10T02:37:08;102138.68;;;16.78;42.92
63663;BME280;49815;51.618;0.336;2022-07-10T02:39:32;102136.66;;;17.12;42.62
63663;BME280;49815;51.618;0.336;2022-07-10T02:41:57;102133.77;;;17.03;43.03
63663;BME280;49815;51.618;0.336;2022-07-10T02:44:22;102129.86;;;16.75;43.10
63663;BME280;49815;51.618;0.336;2022-07-10T02:46:48;102128.78;;;16.99;43.06
63663;BME280;49815;51.618;0.336;2022-07-10T02:49:13;102125.00;;;16.72;43.01
63663;BME280;49815;51.618;0.336;2022-07-10T02:51:38;102126.26;;;16.99;42.64
63663;BME280;49815;51.618;0.336;2022-07-10T02:54:04;102126.65;;;16.65;43.36
63663;BME280;49815;51.618;0.336;2022-07-10T02:56:29;102127.42;;;16.80;43.04
63663;BME280;49815;51.618;0.336;2022-07-10T02:58:54;102124.82;;;16.85;43.06
63663;BME280;49815;51.618;0.336;2022-07-10T03:01:20;102125.66;;;16.45;43.30
63663;BME280;49815;51.618;0.336;2022-07-10T03:03:45;102125.05;;;16.47;43.33
63663;BME280;49815;51.618;0.336;2022-07-10T03:06:10;102124.68;;;16.09;43.40
63663;BME280;49815;51.618;0.336;2022-07-10T03:08:36;102123.25;;;16.23;43.72
63663;BME280;49815;51.618;0.336;2022-07-10T03:11:02;102122.25;;;16.22;43.84
63663;BME280;49815;51.618;0.336;2022-07-10T03:13:26;102118.91;;;16.51;43.61
63663;BME280;49815;51.618;0.336;2022-07-10T03:15:53;102111.22;;;16.68;43.66
63663;BME280;49815;51.618;0.336;2022-07-10T03:18:17;102111.45;;;17.07;42.95
63663;BME280;49815;51.618;0.336;2022-07-10T03:20:42;102109.55;;;16.88;42.79
63663;BME280;49815;51.618;0.336;2022-07-10T03:23:08;102107.71;;;17.23;43.63
63663;BME280;49815;51.618;0.336;2022-07-10T03:25:34;102110.25;;;16.43;44.82
63663;BME280;49815;51.618;0.336;2022-07-10T03:27:58;102104.49;;;16.97;44.61
63663;BME280;49815;51.618;0.336;2022-07-10T03:30:23;102100.44;;;16.89;44.65
63663;BME280;49815;51.618;0.336;2022-07-10T03:32:48;102101.66;;;16.81;44.52
63663;BME280;49815;51.618;0.336;2022-07-10T03:35:14;102097.61;;;16.86;44.91
63663;BME280;49815;51.618;0.336;2022-07-10T03:37:39;102095.77;;;16.54;45.08
63663;BME280;49815;51.618;0.336;2022-07-10T03:40:05;102095.58;;;16.47;43.95
63663;BME280;49815;51.618;0.336;2022-07-10T03:42:30;102094.16;;;17.00;44.18
63663;BME280;49815;51.618;0.336;2022-07-10T03:44:55;102090.08;;;17.19;43.48
63663;BME280;49815;51.618;0.336;2022-07-10T03:47:20;102092.91;;;16.79;42.98
63663;BME280;49815;51.618;0.336;2022-07-10T03:49:46;102091.83;;;17.10;43.98
63663;BME280;49815;51.618;0.336;2022-07-10T03:52:10;102086.88;;;16.78;43.41
63663;BME280;49815;51.618;0.336;2022-07-10T03:54:36;102088.51;;;16.84;43.64
63663;BME280;49815;51.618;0.336;2022-07-10T03:57:02;102085.42;;;16.97;43.28
63663;BME280;49815;51.618;0.336;2022-07-10T03:59:26;102079.35;;;16.74;42.93
63663;BME280;49815;51.618;0.336;2022-07-10T04:01:52;102078.89;;;16.75;43.60
63663;BME280;49815;51.618;0.336;2022-07-10T04:04:17;102078.96;;;16.91;43.28
63663;BME280;49815;51.618;0.336;2022-07-10T04:06:43;102078.86;;;16.91;42.94
63663;BME280;49815;51.618;0.336;2022-07-10T04:09:08;102079.20;;;16.54;42.94
63663;BME280;49815;51.618;0.336;2022-07-10T04:11:33;102081.64;;;16.90;42.91
63663;BME280;49815;51.618;0.336;2022-07-10T04:13:58;102085.12;;;16.91;43.05
63663;BME280;49815;51.618;0.336;2022-07-10T04:16:24;102086.08;;;17.00;42.72
63663;BME280;49815;51.618;0.336;2022-07-10T04:18:49;102084.30;;;16.98;42.69
63663;BME280;49815;51.618;0.336;2022-07-10T04:21:15;102080.37;;;17.23;42.72
63663;BME280;49815;51.618;0.336;2022-07-10T04:23:40;102080.49;;;16.84;43.12
63663;BME280;49815;51.618;0.336;2022-07-10T04:26:05;102074.63;;;16.84;43.58
63663;BME280;49815;51.618;0.336;2022-07-10T04:28:31;102072.38;;;17.16;43.40
63663;BME280;49815;51.618;0.336;2022-07-10T04:30:56;102075.32;;;16.90;43.00
63663;BME280;49815;51.618;0.336;2022-07-10T04:33:22;102073.20;;;17.02;42.84
63663;BME280;49815;51.618;0.336;2022-07-10T04:35:48;102072.31;;;17.22;42.92
63663;BME280;49815;51.618;0.336;2022-07-10T04:38:13;102070.07;;;17.18;42.52
63663;BME280;49815;51.618;0.336;2022-07-10T04:40:38;102071.31;;;17.15;42.50
63663;BME280;49815;51.618;0.336;2022-07-10T04:43:04;102070.73;;;17.29;42.51
63663;BME280;49815;51.618;0.336;2022-07-10T04:45:29;102073.99;;;17.56;42.43
63663;BME280;49815;51.618;0.336;2022-07-10T04:47:54;102072.53;;;17.49;42.29
63663;BME280;49815;51.618;0.336;2022-07-10T04:50:19;102074.89;;;17.33;41.70
63663;BME280;49815;51.618;0.336;2022-07-10T04:52:45;102074.03;;;18.02;41.67
63663;BME280;49815;51.618;0.336;2022-07-10T04:55:10;102072.79;;;18.01;41.33
63663;BME280;49815;51.618;0.336;2022-07-10T04:57:35;102070.76;;;17.75;41.43
63663;BME280;49815;51.618;0.336;2022-07-10T05:00:01;102070.66;;;17.94;41.12
63663;BME280;49815;51.618;0.336;2022-07-10T05:02:26;102067.89;;;17.27;42.43
63663;BME280;49815;51.618;0.336;2022-07-10T05:04:51;102066.88;;;17.70;42.05
63663;BME280;49815;51.618;0.336;2022-07-10T05:07:17;102066.22;;;17.44;42.00
63663;BME280;49815;51.618;0.336;2022-07-10T05:09:42;102068.36;;;17.33;42.66
63663;BME280;49815;51.618;0.336;2022-07-10T05:12:08;102071.98;;;16.79;43.12
63663;BME280;49815;51.618;0.336;2022-07-10T05:14:34;102069.08;;;16.88;42.41
63663;BME280;49815;51.618;0.336;2022-07-10T05:16:59;102070.36;;;17.56;41.58
63663;BME280;49815;51.618;0.336;2022-07-10T05:19:24;102074.33;;;17.57;41.26
63663;BME280;49815;51.618;0.336;2022-07-10T05:21:49;102073.57;;;17.82;41.31
63663;BME280;49815;51.618;0.336;2022-07-10T05:24:14;102073.25;;;17.69;41.28
63663;BME280;49815;51.618;0.336;2022-07-10T05:26:39;102073.71;;;17.26;42.10
63663;BME280;49815;51.618;0.336;2022-07-10T05:29:05;102078.58;;;16.88;42.30
63663;BME280;49815;51.618;0.336;2022-07-10T05:31:30;102070.02;;;17.70;41.10
63663;BME280;49815;51.618;0.336;2022-07-10T05:33:55;102076.36;;;17.25;42.24
63663;BME280;49815;51.618;0.336;2022-07-10T05:36:21;102072.39;;;17.92;40.37
63663;BME280;49815;51.618;0.336;2022-07-10T05:38:46;102072.53;;;18.04;39.75
63663;BME280;49815;51.618;0.336;2022-07-10T05:41:11;102075.95;;;16.40;42.18
63663;BME280;49815;51.618;0.336;2022-07-10T05:43:37;102077.37;;;16.83;41.84
63663;BME280;49815;51.618;0.336;2022-07-10T05:46:03;102075.74;;;17.85;40.54
63663;BME280;49815;51.618;0.336;2022-07-10T05:48:28;102078.85;;;16.21;42.84
63663;BME280;49815;51.618;0.336;2022-07-10T05:50:53;102078.77;;;16.69;42.04
63663;BME280;49815;51.618;0.336;2022-07-10T05:53:18;102075.91;;;17.55;40.84
63663;BME280;49815;51.618;0.336;2022-07-10T05:55:44;102071.14;;;17.50;40.93
63663;BME280;49815;51.618;0.336;2022-07-10T05:58:09;102065.09;;;17.35;40.55
63663;BME280;49815;51.618;0.336;2022-07-10T06:00:34;102065.11;;;16.94;41.77
63663;BME280;49815;51.618;0.336;2022-07-10T06:02:59;102071.09;;;15.91;42.78
63663;BME280;49815;51.618;0.336;2022-07-10T06:05:25;102072.71;;;16.34;42.50
63663;BME280;49815;51.618;0.336;2022-07-10T06:07:50;102067.89;;;16.49;41.92
63663;BME280;49815;51.618;0.336;2022-07-10T06:10:15;102061.92;;;18.59;38.79
63663;BME280;49815;51.618;0.336;2022-07-10T06:12:40;102071.81;;;15.65;42.22
63663;BME280;49815;51.618;0.336;2022-07-10T06:15:12;102069.97;;;15.23;42.31
63663;BME280;49815;51.618;0.336;2022-07-10T06:17:31;102069.98;;;15.54;42.12
63663;BME280;49815;51.618;0.336;2022-07-10T06:19:57;102064.84;;;16.66;40.87
63663;BME280;49815;51.618;0.336;2022-07-10T06:22:21;102064.01;;;16.63;40.76
63663;BME280;49815;51.618;0.336;2022-07-10T06:24:47;102070.25;;;15.39;43.05
63663;BME280;49815;51.618;0.336;2022-07-10T06:27:12;102067.73;;;15.78;42.79
63663;BME280;49815;51.618;0.336;2022-07-10T06:29:37;102067.38;;;16.42;41.86
63663;BME280;49815;51.618;0.336;2022-07-10T06:32:04;102072.72;;;15.63;43.42
63663;BME280;49815;51.618;0.336;2022-07-10T06:34:28;102074.80;;;15.62;43.38
63663;BME280;49815;51.618;0.336;2022-07-10T06:36:53;102071.20;;;15.53;43.80
63663;BME280;49815;51.618;0.336;2022-07-10T06:39:19;102064.33;;;15.28;45.28
63663;BME280;49815;51.618;0.336;2022-07-10T06:41:45;102065.49;;;14.66;46.31
63663;BME280;49815;51.618;0.336;2022-07-10T06:44:09;102059.93;;;16.76;42.99
63663;BME280;49815;51.618;0.336;2022-07-10T06:46:34;102053.73;;;17.33;41.48
63663;BME280;49815;51.618;0.336;2022-07-10T06:49:04;102055.16;;;17.09;41.64
63663;BME280;49815;51.618;0.336;2022-07-10T06:51:24;102054.29;;;17.23;41.23
63663;BME280;49815;51.618;0.336;2022-07-10T06:53:50;102057.27;;;16.46;42.55
63663;BME280;49815;51.618;0.336;2022-07-10T06:56:15;102057.77;;;17.05;42.29
63663;BME280;49815;51.618;0.336;2022-07-10T06:58:40;102058.62;;;17.76;40.88
63663;BME280;49815;51.618;0.336;2022-07-10T07:01:06;102055.24;;;16.88;40.82
63663;BME280;49815;51.618;0.336;2022-07-10T07:03:31;102057.02;;;20.45;36.45
63663;BME280;49815;51.618;0.336;2022-07-10T07:05:56;102059.56;;;18.12;38.92
63663;BME280;49815;51.618;0.336;2022-07-10T07:08:21;102059.65;;;17.69;39.58
63663;BME280;49815;51.618;0.336;2022-07-10T07:10:46;102053.66;;;19.49;36.53
63663;BME280;49815;51.618;0.336;2022-07-10T07:13:11;102057.52;;;20.52;34.95
63663;BME280;49815;51.618;0.336;2022-07-10T07:15:36;102049.78;;;21.60;32.77
63663;BME280;49815;51.618;0.336;2022-07-10T07:18:01;102049.91;;;22.56;32.00
63663;BME280;49815;51.618;0.336;2022-07-10T07:20:27;102046.65;;;22.18;32.28
63663;BME280;49815;51.618;0.336;2022-07-10T07:22:53;102047.04;;;23.66;30.19
63663;BME280;49815;51.618;0.336;2022-07-10T07:25:19;102042.72;;;22.55;30.10
63663;BME280;49815;51.618;0.336;2022-07-10T07:27:44;102037.29;;;26.43;27.20
63663;BME280;49815;51.618;0.336;2022-07-10T07:30:12;102040.31;;;26.88;25.28
63663;BME280;49815;51.618;0.336;2022-07-10T07:32:37;102039.18;;;27.48;24.74
63663;BME280;49815;51.618;0.336;2022-07-10T07:35:04;102040.00;;;29.19;23.70
63663;BME280;49815;51.618;0.336;2022-07-10T07:37:38;102043.78;;;25.47;26.18
63663;BME280;49815;51.618;0.336;2022-07-10T07:39:53;102045.83;;;25.04;26.89
63663;BME280;49815;51.618;0.336;2022-07-10T07:42:19;102042.23;;;21.72;31.26
63663;BME280;49815;51.618;0.336;2022-07-10T07:44:45;102048.60;;;20.09;34.11
63663;BME280;49815;51.618;0.336;2022-07-10T07:47:10;102048.43;;;19.00;36.73
63663;BME280;49815;51.618;0.336;2022-07-10T07:49:35;102051.96;;;18.32;37.84
63663;BME280;49815;51.618;0.336;2022-07-10T07:52:00;102050.17;;;19.11;36.81
63663;BME280;49815;51.618;0.336;2022-07-10T07:54:25;102050.66;;;20.49;35.45
63663;BME280;49815;51.618;0.336;2022-07-10T07:56:50;102049.32;;;18.53;38.54
63663;BME280;49815;51.618;0.336;2022-07-10T07:59:16;102049.38;;;18.31;39.71
63663;BME280;49815;51.618;0.336;2022-07-10T08:01:41;102044.12;;;20.14;37.28
63663;BME280;49815;51.618;0.336;2022-07-10T08:04:08;102043.88;;;19.33;38.26
63663;BME280;49815;51.618;0.336;2022-07-10T08:06:31;102047.58;;;19.75;36.92
63663;BME280;49815;51.618;0.336;2022-07-10T08:08:56;102048.15;;;20.03;36.56
63663;BME280;49815;51.618;0.336;2022-07-10T08:11:21;102044.44;;;19.88;36.52
63663;BME280;49815;51.618;0.336;2022-07-10T08:13:47;102045.66;;;20.00;36.79
63663;BME280;49815;51.618;0.336;2022-07-10T08:16:12;102042.17;;;19.01;37.24
63663;BME280;49815;51.618;0.336;2022-07-10T08:18:37;102037.33;;;21.13;34.48
63663;BME280;49815;51.618;0.336;2022-07-10T08:21:03;102041.80;;;20.83;35.55
63663;BME280;49815;51.618;0.336;2022-07-10T08:23:27;102048.80;;;20.31;36.60
63663;BME280;49815;51.618;0.336;2022-07-10T08:25:52;102049.66;;;20.19;35.71
63663;BME280;49815;51.618;0.336;2022-07-10T08:28:18;102046.92;;;19.54;37.09
63663;BME280;49815;51.618;0.336;2022-07-10T08:30:43;102044.27;;;20.57;36.86
63663;BME280;49815;51.618;0.336;2022-07-10T08:33:08;102041.08;;;20.37;36.97
63663;BME280;49815;51.618;0.336;2022-07-10T08:35:34;102039.45;;;18.61;39.48
63663;BME280;49815;51.618;0.336;2022-07-10T08:37:58;102037.12;;;19.20;39.15
63663;BME280;49815;51.618;0.336;2022-07-10T08:40:23;102029.62;;;19.13;39.07
63663;BME280;49815;51.618;0.336;2022-07-10T08:42:49;102027.30;;;19.12;38.84
63663;BME280;49815;51.618;0.336;2022-07-10T08:45:14;102027.82;;;19.41;38.13
63663;BME280;49815;51.618;0.336;2022-07-10T08:47:39;102022.28;;;18.70;39.58
63663;BME280;49815;51.618;0.336;2022-07-10T08:50:05;102015.54;;;21.50;35.91
63663;BME280;49815;51.618;0.336;2022-07-10T08:52:33;102014.11;;;21.78;34.64
63663;BME280;49815;51.618;0.336;2022-07-10T08:54:54;102017.34;;;21.07;35.97
63663;BME280;49815;51.618;0.336;2022-07-10T08:57:20;102011.25;;;22.09;35.14
63663;BME280;49815;51.618;0.336;2022-07-10T08:59:44;102015.82;;;20.04;36.65
63663;BME280;49815;51.618;0.336;2022-07-10T09:02:09;102009.67;;;22.48;34.15
63663;BME280;49815;51.618;0.336;2022-07-10T09:04:34;102010.29;;;21.18;34.39
63663;BME280;49815;51.618;0.336;2022-07-10T09:06:59;102011.14;;;21.55;35.58
63663;BME280;49815;51.618;0.336;2022-07-10T09:09:25;102016.83;;;19.95;36.95
63663;BME280;49815;51.618;0.336;2022-07-10T09:11:55;102016.01;;;19.86;37.26
63663;BME280;49815;51.618;0.336;2022-07-10T09:14:16;102016.67;;;20.14;37.00
63663;BME280;49815;51.618;0.336;2022-07-10T09:16:41;102010.70;;;20.39;36.45
63663;BME280;49815;51.618;0.336;2022-07-10T09:19:15;102008.16;;;20.51;36.06
63663;BME280;49815;51.618;0.336;2022-07-10T09:21:33;102007.71;;;20.86;35.85
63663;BME280;49815;51.618;0.336;2022-07-10T09:23:55;102003.72;;;21.43;34.48
63663;BME280;49815;51.618;0.336;2022-07-10T09:26:20;102000.36;;;21.75;34.02
63663;BME280;49815;51.618;0.336;2022-07-10T09:28:45;101994.50;;;22.59;33.26
63663;BME280;49815;51.618;0.336;2022-07-10T09:31:10;101992.26;;;21.71;33.49
63663;BME280;49815;51.618;0.336;2022-07-10T09:33:35;101990.36;;;21.71;33.99
63663;BME280;49815;51.618;0.336;2022-07-10T09:36:03;101991.30;;;23.03;33.15
63663;BME280;49815;51.618;0.336;2022-07-10T09:38:25;101989.31;;;23.07;32.12
63663;BME280;49815;51.618;0.336;2022-07-10T09:40:51;101987.91;;;22.22;33.07
63663;BME280;49815;51.618;0.336;2022-07-10T09:43:16;101988.68;;;22.02;34.05
63663;BME280;49815;51.618;0.336;2022-07-10T09:45:41;101989.92;;;22.67;32.91
63663;BME280;49815;51.618;0.336;2022-07-10T09:48:06;101987.78;;;22.64;32.22
63663;BME280;49815;51.618;0.336;2022-07-10T09:50:32;101989.42;;;21.11;34.54
63663;BME280;49815;51.618;0.336;2022-07-10T09:52:57;101978.52;;;23.21;32.59
63663;BME280;49815;51.618;0.336;2022-07-10T09:55:23;101979.75;;;23.76;31.15
63663;BME280;49815;51.618;0.336;2022-07-10T09:57:53;101981.52;;;21.87;33.97
63663;BME280;49815;51.618;0.336;2022-07-10T10:00:12;101981.15;;;23.38;32.09
63663;BME280;49815;51.618;0.336;2022-07-10T10:02:38;101981.54;;;22.19;34.15
63663;BME280;49815;51.618;0.336;2022-07-10T10:05:03;101975.28;;;24.82;30.74
63663;BME280;49815;51.618;0.336;2022-07-10T10:07:28;101973.13;;;23.53;30.42
63663;BME280;49815;51.618;0.336;2022-07-10T10:09:54;101973.69;;;21.99;31.78
63663;BME280;49815;51.618;0.336;2022-07-10T10:12:24;101971.94;;;21.44;34.24
63663;BME280;49815;51.618;0.336;2022-07-10T10:14:43;101968.78;;;22.71;33.37
63663;BME280;49815;51.618;0.336;2022-07-10T10:17:08;101966.33;;;24.09;31.13
63663;BME280;49815;51.618;0.336;2022-07-10T10:19:34;101961.14;;;23.59;32.02
63663;BME280;49815;51.618;0.336;2022-07-10T10:21:59;101963.27;;;21.95;33.69
63663;BME280;49815;51.618;0.336;2022-07-10T10:24:23;101957.99;;;23.52;32.22
63663;BME280;49815;51.618;0.336;2022-07-10T10:26:54;101955.70;;;24.15;31.64
63663;BME280;49815;51.618;0.336;2022-07-10T10:29:13;101956.60;;;22.67;32.40
63663;BME280;49815;51.618;0.336;2022-07-10T10:31:39;101953.42;;;23.69;31.81
63663;BME280;49815;51.618;0.336;2022-07-10T10:34:04;101957.45;;;22.55;33.15
63663;BME280;49815;51.618;0.336;2022-07-10T10:36:43;101956.07;;;22.35;33.71
63663;BME280;49815;51.618;0.336;2022-07-10T10:39:01;101951.58;;;23.29;33.20
63663;BME280;49815;51.618;0.336;2022-07-10T10:41:22;101954.42;;;22.91;31.73
63663;BME280;49815;51.618;0.336;2022-07-10T10:48:34;101945.71;;;23.04;32.64
63663;BME280;49815;51.618;0.336;2022-07-10T10:50:59;101945.64;;;23.91;31.46
63663;BME280;49815;51.618;0.336;2022-07-10T10:53:25;101943.07;;;23.23;31.94
63663;BME280;49815;51.618;0.336;2022-07-10T10:58:16;101936.06;;;23.75;31.43
63663;BME280;49815;51.618;0.336;2022-07-10T11:00:39;101934.95;;;23.18;31.50
63663;BME280;49815;51.618;0.336;2022-07-10T11:03:18;101933.72;;;23.07;31.84
63663;BME280;49815;51.618;0.336;2022-07-10T11:05:39;101933.17;;;23.36;30.50
63663;BME280;49815;51.618;0.336;2022-07-10T11:07:55;101925.31;;;25.02;29.56
63663;BME280;49815;51.618;0.336;2022-07-10T11:10:29;101924.10;;;22.55;31.83
63663;BME280;49815;51.618;0.336;2022-07-10T11:12:56;101925.30;;;23.85;31.57
63663;BME280;49815;51.618;0.336;2022-07-10T11:15:14;101923.61;;;23.32;31.09
63663;BME280;49815;51.618;0.336;2022-07-10T11:17:35;101922.03;;;23.50;31.96
63663;BME280;49815;51.618;0.336;2022-07-10T11:20:01;101910.29;;;26.38;28.46
63663;BME280;49815;51.618;0.336;2022-07-10T11:22:46;101906.62;;;26.39;28.94
63663;BME280;49815;51.618;0.336;2022-07-10T11:24:59;101909.95;;;24.11;29.66
63663;BME280;49815;51.618;0.336;2022-07-10T11:27:28;101906.75;;;25.05;29.33
63663;BME280;49815;51.618;0.336;2022-07-10T11:29:40;101906.03;;;24.98;29.60
63663;BME280;49815;51.618;0.336;2022-07-10T11:32:06;101903.85;;;25.15;29.37
63663;BME280;49815;51.618;0.336;2022-07-10T11:34:34;101899.81;;;26.69;25.82
63663;BME280;49815;51.618;0.336;2022-07-10T11:36:55;101900.03;;;24.95;29.38
63663;BME280;49815;51.618;0.336;2022-07-10T11:39:21;101897.44;;;24.98;27.51
63663;BME280;49815;51.618;0.336;2022-07-10T11:41:46;101901.21;;;24.42;28.55
63663;BME280;49815;51.618;0.336;2022-07-10T11:44:14;101894.46;;;27.23;25.92
63663;BME280;49815;51.618;0.336;2022-07-10T11:46:36;101891.41;;;26.59;26.04
63663;BME280;49815;51.618;0.336;2022-07-10T11:49:03;101891.07;;;25.94;26.83
63663;BME280;49815;51.618;0.336;2022-07-10T11:51:29;101895.84;;;24.70;27.77
63663;BME280;49815;51.618;0.336;2022-07-10T11:53:54;101889.15;;;23.39;29.17
63663;BME280;49815;51.618;0.336;2022-07-10T11:56:19;101895.17;;;23.66;29.56
63663;BME280;49815;51.618;0.336;2022-07-10T11:58:41;101890.18;;;24.69;28.86
63663;BME280;49815;51.618;0.336;2022-07-10T12:01:08;101882.29;;;24.47;26.85
63663;BME280;49815;51.618;0.336;2022-07-10T12:03:32;101880.29;;;24.41;27.97
63663;BME280;49815;51.618;0.336;2022-07-10T12:06:02;101878.58;;;24.98;28.49
63663;BME280;49815;51.618;0.336;2022-07-10T12:08:23;101880.70;;;24.87;28.45
63663;BME280;49815;51.618;0.336;2022-07-10T12:10:47;101889.01;;;24.31;29.17
63663;BME280;49815;51.618;0.336;2022-07-10T12:13:13;101880.07;;;24.95;28.09
63663;BME280;49815;51.618;0.336;2022-07-10T12:15:38;101873.22;;;27.03;26.32
63663;BME280;49815;51.618;0.336;2022-07-10T12:18:02;101873.78;;;27.76;24.95
63663;BME280;49815;51.618;0.336;2022-07-10T12:20:27;101881.02;;;23.88;29.26
63663;BME280;49815;51.618;0.336;2022-07-10T12:22:52;101880.37;;;23.93;29.59
63663;BME280;49815;51.618;0.336;2022-07-10T12:25:17;101882.28;;;25.07;28.37
63663;BME280;49815;51.618;0.336;2022-07-10T12:27:42;101888.69;;;24.19;29.40
63663;BME280;49815;51.618;0.336;2022-07-10T12:30:09;101886.37;;;24.13;28.71
63663;BME280;49815;51.618;0.336;2022-07-10T12:32:32;101872.22;;;26.89;26.67
63663;BME280;49815;51.618;0.336;2022-07-10T12:34:59;101876.55;;;24.16;27.90
63663;BME280;49815;51.618;0.336;2022-07-10T12:37:22;101875.05;;;23.95;30.05
63663;BME280;49815;51.618;0.336;2022-07-10T12:39:49;101874.29;;;24.06;29.97
63663;BME280;49815;51.618;0.336;2022-07-10T12:42:12;101860.19;;;27.16;26.36
63663;BME280;49815;51.618;0.336;2022-07-10T12:44:40;101858.09;;;26.95;25.82
63663;BME280;49815;51.618;0.336;2022-07-10T12:47:05;101858.17;;;25.53;26.99